This is the latest recevied weather packets stored in our database for station/object WB0OCV. If no packets are shown the sender has not sent any weather packets the latest 10 day(s).
| Time | Temp. | Humidity | Pressure | Rain* | Wind** | Luminosity | Snow |
|---|---|---|---|---|---|---|---|
| 1778095886 | 16.67° C | 78% | 1012.6 hPa | 0 mm | - | 150 W/m² | - |
| 1778093763 | 17.22° C | 77% | 1012.6 hPa | 0 mm | - | 122 W/m² | - |
| 1778092549 | 17.78° C | 75% | 1013.1 hPa | 0 mm | - | 237 W/m² | - |
| 1778092246 | 17.78° C | 75% | 1013.1 hPa | 0 mm | - | 189 W/m² | - |
| 1778091944 | 18.33° C | 73% | 1013.3 hPa | 0 mm | - | 212 W/m² | - |
| 1778091641 | 18.33° C | 74% | 1013.3 hPa | 0 mm | - | 242 W/m² | - |
| 1778091339 | 18.33° C | 74% | 1013.5 hPa | 0 mm | - | 241 W/m² | - |
| 1778091035 | 18.89° C | 73% | 1013.5 hPa | 0 mm | - | 251 W/m² | - |
| 1778090732 | 18.89° C | 72% | 1013.6 hPa | 0 mm | - | 240 W/m² | - |
| 1778090429 | 19.44° C | 72% | 1013.7 hPa | 0 mm | - | 298 W/m² | - |
| 1778089216 | 20° C | 70% | 1013.8 hPa | 0 mm | - | 682 W/m² | - |
| 1778088914 | 20° C | 70% | 1013.8 hPa | 0 mm | - | 348 W/m² | - |
| 1778088308 | 20.56° C | 68% | 1013.7 hPa | 0 mm | - | 581 W/m² | - |
| 1778088004 | 20.56° C | 68% | 1014 hPa | 0 mm | - | 555 W/m² | - |
| 1778085583 | 19.44° C | 72% | 1014.4 hPa | 0 mm | - | 276 W/m² | - |
| 1778085277 | 19.44° C | 71% | 1014.6 hPa | 0 mm | - | 263 W/m² | - |
| 1778084066 | 20.56° C | 68% | 1014.7 hPa | 0 mm | - | 387 W/m² | - |
| 1778083763 | 20.56° C | 67% | 1014.8 hPa | 0 mm | - | 487 W/m² | - |
| 1778083158 | 20.56° C | 66% | 1015.1 hPa | 0 mm | - | 832 W/m² | - |
| 1778079920 | 20° C | 69% | 1015.3 hPa | 0 mm | - | 589 W/m² | - |
| 1778077196 | 20° C | 69% | 1015.3 hPa | 0 mm | - | 488 W/m² | - |
| 1778076592 | 20.56° C | 68% | 1015.4 hPa | 0 mm | - | 671 W/m² | - |
| 1778074772 | 18.89° C | 72% | 1015.2 hPa | 0 mm | - | 568 W/m² | - |
| 1778074469 | 18.89° C | 73% | 1015.1 hPa | 0 mm | - | 545 W/m² | - |
| 1778074166 | 18.89° C | 74% | 1015.3 hPa | 0 mm | - | 268 W/m² | - |
* Rain latest hour (hover to see other rain measurements)
** Current wind speed in m/s (hover to see current wind gust speed)